createdAt,value
2023-02-12T00:01:22.431Z,1.10
2023-02-12T00:03:49.144Z,1.00
2023-02-12T00:06:16.251Z,1.00
2023-02-12T00:08:43.206Z,1.00
2023-02-12T00:11:16.325Z,1.00
2023-02-12T00:13:43.728Z,0.90
2023-02-12T00:16:17.869Z,0.80
2023-02-12T00:18:44.859Z,0.80
2023-02-12T00:21:13.236Z,0.90
2023-02-12T00:23:42.891Z,0.90
2023-02-12T00:26:19.110Z,1.00
2023-02-12T00:28:45.780Z,1.00
2023-02-12T00:31:20.142Z,1.00
2023-02-12T00:33:46.779Z,1.10
2023-02-12T00:36:23.665Z,1.10
2023-02-12T00:38:53.450Z,1.10
2023-02-12T00:41:21.732Z,1.20
2023-02-12T00:43:48.905Z,1.10
2023-02-12T00:46:16.057Z,1.30
2023-02-12T00:48:42.838Z,1.30
2023-02-12T00:51:09.410Z,1.30
2023-02-12T00:53:36.784Z,1.30
2023-02-12T00:56:03.896Z,1.30
2023-02-12T00:58:30.388Z,1.30
2023-02-12T01:00:56.848Z,1.30
2023-02-12T01:03:23.871Z,1.40
2023-02-12T01:05:51.219Z,1.30
2023-02-12T01:08:17.753Z,1.40
2023-02-12T01:10:44.722Z,1.40
2023-02-12T01:13:14.360Z,1.40
2023-02-12T01:15:41.993Z,1.40
2023-02-12T01:18:08.548Z,1.50
2023-02-12T01:20:35.054Z,1.50
2023-02-12T01:23:01.520Z,1.60
2023-02-12T01:25:28.051Z,1.60
2023-02-12T01:27:54.695Z,1.60
2023-02-12T01:30:23.403Z,1.50
2023-02-12T01:32:49.892Z,1.50
2023-02-12T01:35:16.530Z,1.60
2023-02-12T01:37:43.317Z,1.60
2023-02-12T01:40:14.108Z,1.50
2023-02-12T01:42:40.560Z,1.50
2023-02-12T01:46:28.807Z,1.40
2023-02-12T01:48:55.494Z,1.50
2023-02-12T01:51:23.722Z,1.50
2023-02-12T01:53:58.559Z,1.50
2023-02-12T01:56:25.402Z,1.50
2023-02-12T01:58:54.885Z,1.70
2023-02-12T02:01:31.689Z,1.60
2023-02-12T02:04:10.915Z,1.60
2023-02-12T02:08:34.288Z,1.60
2023-02-12T02:11:00.816Z,1.60
2023-02-12T02:13:45.876Z,1.80
2023-02-12T02:16:25.820Z,1.70
2023-02-12T02:22:06.730Z,1.70
2023-02-12T02:27:27.414Z,1.70
2023-02-12T02:30:33.891Z,1.80
2023-02-12T02:34:11.615Z,1.70
2023-02-12T02:37:00.732Z,1.70
2023-02-12T02:41:10.444Z,1.90
2023-02-12T02:43:47.726Z,1.80
2023-02-12T02:46:49.679Z,1.90
2023-02-12T02:49:32.206Z,1.80
2023-02-12T02:52:10.865Z,1.80
2023-02-12T02:54:48.019Z,1.80
2023-02-12T02:57:44.862Z,1.80
2023-02-12T03:01:55.758Z,1.70
2023-02-12T03:04:32.406Z,1.80
2023-02-12T03:07:19.676Z,1.70
2023-02-12T03:10:55.047Z,1.70
2023-02-12T03:13:36.909Z,1.60
2023-02-12T03:16:15.392Z,1.70
2023-02-12T03:18:56.595Z,1.70
2023-02-12T03:21:40.160Z,1.70
2023-02-12T03:24:38.231Z,1.70
2023-02-12T03:27:15.746Z,1.70
2023-02-12T03:29:42.291Z,1.80
2023-02-12T03:34:03.657Z,1.80
2023-02-12T03:37:36.365Z,1.90
2023-02-12T03:40:23.301Z,1.80
2023-02-12T03:43:29.134Z,1.80
2023-02-12T03:46:20.013Z,1.90
2023-02-12T03:49:21.196Z,1.70
2023-02-12T03:51:47.713Z,1.70
2023-02-12T03:54:19.337Z,1.70
2023-02-12T03:57:05.734Z,1.60
2023-02-12T03:59:35.807Z,1.70
2023-02-12T04:02:02.865Z,1.60
2023-02-12T04:04:31.048Z,1.60
2023-02-12T04:06:58.165Z,1.60
2023-02-12T04:09:27.174Z,1.50
2023-02-12T04:12:40.416Z,1.50
2023-02-12T04:15:31.477Z,1.50
2023-02-12T04:18:26.328Z,1.50
2023-02-12T04:21:17.902Z,1.50
2023-02-12T04:25:38.669Z,1.60
2023-02-12T04:29:52.907Z,1.50
2023-02-12T04:32:57.476Z,1.40
2023-02-12T04:35:38.328Z,1.50
2023-02-12T04:38:26.350Z,1.40
2023-02-12T04:40:53.280Z,1.40
2023-02-12T04:43:36.317Z,1.30
2023-02-12T04:46:06.472Z,1.20
2023-02-12T04:48:34.049Z,1.10
2023-02-12T04:51:01.410Z,1.00
2023-02-12T04:53:28.181Z,1.00
2023-02-12T04:55:54.949Z,1.00
2023-02-12T04:58:21.570Z,1.00
2023-02-12T05:00:48.030Z,0.90
2023-02-12T05:03:14.522Z,0.90
2023-02-12T05:05:40.994Z,0.90
2023-02-12T05:08:07.492Z,1.00
2023-02-12T05:10:33.973Z,0.90
2023-02-12T05:13:00.441Z,0.80
2023-02-12T05:15:27.040Z,0.70
2023-02-12T05:17:53.602Z,0.50
2023-02-12T05:20:20.158Z,0.50
2023-02-12T05:22:51.325Z,0.50
2023-02-12T05:25:17.781Z,0.30
2023-02-12T05:27:44.269Z,0.20
2023-02-12T05:30:11.532Z,0.10
2023-02-12T05:32:38.036Z,0.10
2023-02-12T05:35:05.304Z,0.20
2023-02-12T05:37:35.530Z,0.10
2023-02-12T05:40:05.669Z,0.10
2023-02-12T05:42:32.235Z,0.10
2023-02-12T05:44:58.724Z,0.20
2023-02-12T05:47:25.188Z,0.20
2023-02-12T05:49:51.797Z,0.40
2023-02-12T05:52:18.297Z,0.40
2023-02-12T05:54:44.763Z,0.50
2023-02-12T05:57:11.211Z,0.50
2023-02-12T05:59:37.688Z,0.50
2023-02-12T06:02:04.166Z,0.50
2023-02-12T06:04:30.652Z,0.50
2023-02-12T06:06:57.415Z,0.50
2023-02-12T06:09:24.253Z,0.50
2023-02-12T06:11:51.240Z,0.30
2023-02-12T06:14:19.862Z,0.30
2023-02-12T06:16:49.649Z,0.30
2023-02-12T06:19:16.974Z,0.20
2023-02-12T06:21:44.095Z,0.20
2023-02-12T06:24:15.616Z,0.30
2023-02-12T06:26:42.599Z,0.60
2023-02-12T06:29:09.101Z,0.80
2023-02-12T06:31:37.147Z,0.80
2023-02-12T06:34:08.749Z,0.80
2023-02-12T06:36:39.307Z,0.80
2023-02-12T06:39:06.621Z,0.90
2023-02-12T06:41:33.321Z,1.00
2023-02-12T06:43:59.992Z,1.10
2023-02-12T06:46:26.649Z,1.10
2023-02-12T06:48:55.962Z,1.20
2023-02-12T06:51:23.427Z,1.10
2023-02-12T06:53:52.851Z,1.20
2023-02-12T06:56:22.012Z,1.30
2023-02-12T06:58:56.247Z,1.30
2023-02-12T07:01:28.782Z,1.50
2023-02-12T07:03:59.336Z,1.70
2023-02-12T07:06:27.299Z,1.70
2023-02-12T07:08:55.076Z,1.60
2023-02-12T07:11:31.180Z,1.70
2023-02-12T07:13:58.237Z,1.80
2023-02-12T07:16:27.667Z,1.90
2023-02-12T07:18:54.631Z,2.00
2023-02-12T07:21:21.257Z,2.00
2023-02-12T07:23:51.527Z,2.10
2023-02-12T07:26:20.715Z,2.10
2023-02-12T07:28:47.840Z,2.10
2023-02-12T07:31:23.038Z,2.20
2023-02-12T07:33:54.624Z,2.30
2023-02-12T07:36:21.831Z,2.40
2023-02-12T07:38:48.477Z,2.50
2023-02-12T07:41:22.888Z,2.50
2023-02-12T07:43:55.456Z,2.60
2023-02-12T07:46:29.855Z,2.70
2023-02-12T07:48:58.741Z,2.90
2023-02-12T07:51:26.949Z,3.10
2023-02-12T07:53:54.043Z,3.20
2023-02-12T07:56:30.111Z,3.30
2023-02-12T07:58:58.194Z,3.30
2023-02-12T08:01:33.371Z,3.40
2023-02-12T08:04:22.460Z,3.50
2023-02-12T08:06:53.197Z,3.50
2023-02-12T08:09:24.855Z,3.50
2023-02-12T08:11:51.700Z,3.50
2023-02-12T08:14:21.057Z,3.70
2023-02-12T08:16:49.673Z,3.70
2023-02-12T08:19:21.683Z,3.80
2023-02-12T08:21:56.739Z,3.90
2023-02-12T08:24:24.588Z,4.10
2023-02-12T08:26:51.684Z,4.20
2023-02-12T08:29:26.007Z,4.20
2023-02-12T08:32:00.893Z,4.30
2023-02-12T08:34:31.824Z,4.40
2023-02-12T08:36:58.877Z,4.50
2023-02-12T08:39:28.410Z,4.70
2023-02-12T08:41:56.923Z,4.90
2023-02-12T08:44:24.376Z,5.00
2023-02-12T08:46:54.812Z,5.10
2023-02-12T08:49:25.630Z,5.30
2023-02-12T08:51:55.925Z,5.50
2023-02-12T08:54:25.988Z,5.70
2023-02-12T08:56:57.823Z,5.90
2023-02-12T08:59:24.302Z,6.20
2023-02-12T09:01:52.685Z,6.40
2023-02-12T09:04:22.995Z,6.60
2023-02-12T09:06:50.670Z,6.80
2023-02-12T09:09:18.844Z,7.00
2023-02-12T09:11:45.385Z,7.30
2023-02-12T09:14:15.472Z,7.40
2023-02-12T09:16:42.941Z,7.60
2023-02-12T09:19:13.087Z,7.70
2023-02-12T09:21:39.849Z,7.90
2023-02-12T09:24:06.542Z,8.00
2023-02-12T09:26:33.039Z,8.10
2023-02-12T09:29:03.450Z,8.30
2023-02-12T09:31:32.065Z,8.40
2023-02-12T09:34:05.548Z,8.60
2023-02-12T09:36:33.747Z,8.70
2023-02-12T09:39:00.283Z,9.00
2023-02-12T09:45:32.278Z,9.30
2023-02-12T09:50:59.754Z,9.60
2023-02-12T09:53:31.729Z,10.00
2023-02-12T09:55:59.249Z,9.70
2023-02-12T09:58:50.352Z,9.60
2023-02-12T10:01:22.215Z,9.40
2023-02-12T10:03:51.557Z,9.40
2023-02-12T10:06:30.066Z,9.40
2023-02-12T10:12:15.012Z,9.40
2023-02-12T10:15:14.207Z,9.70
2023-02-12T10:19:36.808Z,10.20
2023-02-12T10:22:55.840Z,10.30
2023-02-12T10:27:20.291Z,10.70
2023-02-12T10:29:49.069Z,11.20
2023-02-12T10:32:32.734Z,11.40
2023-02-12T10:34:59.927Z,11.60
2023-02-12T10:37:56.886Z,11.70
2023-02-12T10:40:29.274Z,11.80
2023-02-12T10:42:57.596Z,11.90
2023-02-12T10:45:39.018Z,12.10
2023-02-12T10:48:21.480Z,12.20
2023-02-12T10:52:44.404Z,12.30
2023-02-12T10:55:30.492Z,12.50
2023-02-12T10:57:59.553Z,12.30
2023-02-12T11:00:38.322Z,11.90
2023-02-12T11:03:33.591Z,11.60
2023-02-12T11:06:16.900Z,11.50
2023-02-12T11:08:44.682Z,11.50
2023-02-12T11:11:18.792Z,11.40
2023-02-12T11:13:59.260Z,11.50
2023-02-12T11:16:44.714Z,11.70
2023-02-12T11:19:29.389Z,11.80
2023-02-12T11:22:13.764Z,11.80
2023-02-12T11:24:40.335Z,11.60
2023-02-12T11:29:48.720Z,11.30
2023-02-12T11:32:19.025Z,11.50
2023-02-12T11:35:27.609Z,11.80
2023-02-12T11:37:57.929Z,11.90
2023-02-12T11:40:33.632Z,12.20
2023-02-12T11:43:14.069Z,12.20
2023-02-12T11:46:01.425Z,12.30
2023-02-12T11:48:46.949Z,12.50
2023-02-12T11:51:24.453Z,12.90
2023-02-12T11:53:55.635Z,13.00
2023-02-12T11:56:22.352Z,12.90
2023-02-12T11:58:50.949Z,13.00
2023-02-12T12:01:38.594Z,13.00
2023-02-12T12:04:14.686Z,12.80
2023-02-12T12:06:54.013Z,12.90
2023-02-12T12:09:49.598Z,12.90
2023-02-12T12:12:37.000Z,12.70
2023-02-12T12:15:43.935Z,12.80
2023-02-12T12:19:51.925Z,12.70
2023-02-12T12:23:12.483Z,12.80
2023-02-12T12:26:03.817Z,12.90
2023-02-12T12:28:51.732Z,12.90
2023-02-12T12:32:02.752Z,13.10
2023-02-12T12:34:29.488Z,13.20
2023-02-12T12:37:57.312Z,13.20
2023-02-12T12:41:19.652Z,13.20
2023-02-12T12:44:42.401Z,13.20
2023-02-12T12:49:58.875Z,13.10
2023-02-12T12:53:18.080Z,12.80
2023-02-12T12:56:48.740Z,12.70
2023-02-12T13:01:35.533Z,12.70
2023-02-12T13:07:48.285Z,12.50
2023-02-12T13:10:55.620Z,12.40
2023-02-12T13:14:12.862Z,12.70
2023-02-12T13:16:48.948Z,12.60
2023-02-12T13:20:55.655Z,12.60
2023-02-12T13:24:16.765Z,12.50
2023-02-12T13:26:57.031Z,12.40
2023-02-12T13:29:36.517Z,12.30
2023-02-12T13:32:21.688Z,12.20
2023-02-12T13:34:50.051Z,12.10
2023-02-12T13:37:45.855Z,12.20
2023-02-12T13:40:22.614Z,12.20
2023-02-12T13:46:14.600Z,12.00
2023-02-12T13:50:34.033Z,11.70
2023-02-12T13:54:59.284Z,11.80
2023-02-12T13:57:25.760Z,11.70
2023-02-12T13:59:54.570Z,11.70
2023-02-12T14:02:54.656Z,12.00
2023-02-12T14:05:29.276Z,12.10
2023-02-12T14:08:05.509Z,12.40
2023-02-12T14:10:41.730Z,12.40
2023-02-12T14:16:18.520Z,12.30
2023-02-12T14:18:45.018Z,11.90
2023-02-12T14:21:56.844Z,11.60
2023-02-12T14:24:53.303Z,11.40
2023-02-12T14:27:54.042Z,11.60
2023-02-12T14:30:41.787Z,11.50
2023-02-12T14:33:24.383Z,11.20
2023-02-12T14:36:48.303Z,11.10
2023-02-12T14:39:47.823Z,10.90
2023-02-12T14:42:43.171Z,10.80
2023-02-12T14:45:35.272Z,10.70
2023-02-12T14:48:04.486Z,10.60
2023-02-12T14:50:49.693Z,10.60
2023-02-12T14:53:38.587Z,10.70
2023-02-12T14:56:08.620Z,10.70
2023-02-12T14:58:36.838Z,10.70
2023-02-12T15:01:05.797Z,10.80
2023-02-12T15:03:50.318Z,10.70
2023-02-12T15:06:27.406Z,10.80
2023-02-12T15:09:02.353Z,10.70
2023-02-12T15:11:46.790Z,10.70
2023-02-12T15:14:30.272Z,10.70
2023-02-12T15:17:34.249Z,10.70
2023-02-12T15:20:37.677Z,10.60
2023-02-12T15:23:44.840Z,10.60
2023-02-12T15:26:30.958Z,10.60
2023-02-12T15:28:57.562Z,10.70
2023-02-12T15:31:29.607Z,10.60
2023-02-12T15:34:00.573Z,10.50
2023-02-12T15:36:32.598Z,10.40
2023-02-12T15:39:08.387Z,10.30
2023-02-12T15:41:39.642Z,10.30
2023-02-12T15:45:58.342Z,10.20
2023-02-12T15:48:32.465Z,10.10
2023-02-12T15:51:25.107Z,10.00
2023-02-12T15:53:52.240Z,9.80
2023-02-12T15:56:24.114Z,9.60
2023-02-12T15:58:57.240Z,9.40
2023-02-12T16:01:27.237Z,9.20
2023-02-12T16:04:00.902Z,8.90
2023-02-12T16:06:31.996Z,8.60
2023-02-12T16:09:07.568Z,8.30
2023-02-12T16:11:36.123Z,8.10
2023-02-12T16:14:18.355Z,7.90
2023-02-12T16:16:52.123Z,7.60
2023-02-12T16:19:39.456Z,7.40
2023-02-12T16:22:14.308Z,7.60
2023-02-12T16:24:49.548Z,7.70
2023-02-12T16:27:23.561Z,7.60
2023-02-12T16:30:00.885Z,7.50
2023-02-12T16:32:40.964Z,7.30
2023-02-12T16:35:32.378Z,7.20
2023-02-12T16:38:47.768Z,7.00
2023-02-12T16:41:29.913Z,6.90
2023-02-12T16:44:32.275Z,6.60
2023-02-12T16:47:01.215Z,6.50
2023-02-12T16:49:27.736Z,6.30
2023-02-12T16:52:30.657Z,6.20
2023-02-12T16:54:57.133Z,6.00
2023-02-12T16:57:23.626Z,6.00
2023-02-12T16:59:50.104Z,6.00
2023-02-12T17:02:16.575Z,6.00
2023-02-12T17:04:43.094Z,5.80
2023-02-12T17:07:22.605Z,5.70
2023-02-12T17:09:49.151Z,5.70
2023-02-12T17:12:16.538Z,5.60
2023-02-12T17:14:42.982Z,5.50
2023-02-12T17:17:09.582Z,5.50
2023-02-12T17:19:36.194Z,5.50
2023-02-12T17:22:05.151Z,5.30
2023-02-12T17:24:35.858Z,5.00
2023-02-12T17:27:02.749Z,4.80
2023-02-12T17:29:29.941Z,4.40
2023-02-12T17:31:57.199Z,4.50
2023-02-12T17:34:24.761Z,4.50
2023-02-12T17:36:51.972Z,4.00
2023-02-12T17:39:19.521Z,3.60
2023-02-12T17:41:46.839Z,3.40
2023-02-12T17:44:14.705Z,3.20
2023-02-12T17:46:41.989Z,3.10
2023-02-12T17:49:08.495Z,3.30
2023-02-12T17:51:34.976Z,3.50
2023-02-12T17:54:01.656Z,3.30
2023-02-12T17:56:28.152Z,3.30
2023-02-12T17:58:54.694Z,3.60
2023-02-12T18:01:23.125Z,3.70
2023-02-12T18:03:50.810Z,3.70
2023-02-12T18:06:27.657Z,3.40
2023-02-12T18:08:56.444Z,3.10
2023-02-12T18:11:23.312Z,2.90
2023-02-12T18:13:55.032Z,2.70
2023-02-12T18:16:23.999Z,2.60
2023-02-12T18:18:50.765Z,2.60
2023-02-12T18:21:17.480Z,2.40
2023-02-12T18:23:44.439Z,2.30
2023-02-12T18:26:14.525Z,2.10
2023-02-12T18:28:41.813Z,2.00
2023-02-12T18:31:09.823Z,2.10
2023-02-12T18:33:37.617Z,2.10
2023-02-12T18:36:16.272Z,2.20
2023-02-12T18:38:46.365Z,2.20
2023-02-12T18:41:23.539Z,2.30
2023-02-12T18:43:50.649Z,2.40
2023-02-12T18:46:21.420Z,2.40
2023-02-12T18:48:48.518Z,2.20
2023-02-12T18:51:20.277Z,1.90
2023-02-12T18:53:46.986Z,1.80
2023-02-12T18:56:13.712Z,1.70
2023-02-12T18:58:40.262Z,1.70
2023-02-12T19:01:18.978Z,1.60
2023-02-12T19:03:50.172Z,1.50
2023-02-12T19:06:16.669Z,1.50
2023-02-12T19:08:43.127Z,1.50
2023-02-12T19:11:11.337Z,1.50
2023-02-12T19:13:38.483Z,1.50
2023-02-12T19:16:12.849Z,1.40
2023-02-12T19:18:39.970Z,1.40
2023-02-12T19:21:13.245Z,1.30
2023-02-12T19:23:39.971Z,1.30
2023-02-12T19:26:12.027Z,1.20
2023-02-12T19:28:39.308Z,1.10
2023-02-12T19:31:29.330Z,1.10
2023-02-12T19:34:15.225Z,1.00
2023-02-12T19:36:43.582Z,1.00
2023-02-12T19:39:13.996Z,0.90
2023-02-12T19:41:41.251Z,1.00
2023-02-12T19:44:17.929Z,1.00
2023-02-12T19:46:46.166Z,1.10
2023-02-12T19:49:20.432Z,1.30
2023-02-12T19:51:48.268Z,1.30
2023-02-12T19:54:17.269Z,1.40
2023-02-12T19:56:44.531Z,1.50
2023-02-12T19:59:16.570Z,1.30
2023-02-12T20:01:43.927Z,1.30
2023-02-12T20:04:16.802Z,1.10
2023-02-12T20:06:45.153Z,1.00
2023-02-12T20:09:13.399Z,1.20
2023-02-12T20:11:40.338Z,1.00
2023-02-12T20:14:10.277Z,0.90
2023-02-12T20:16:38.440Z,0.80
2023-02-12T20:19:16.242Z,0.50
2023-02-12T20:21:43.190Z,0.60
2023-02-12T20:24:09.887Z,0.70
2023-02-12T20:26:37.215Z,0.70
2023-02-12T20:29:05.376Z,1.00
2023-02-12T20:31:35.216Z,0.80
2023-02-12T20:34:06.152Z,0.60
2023-02-12T20:36:36.188Z,0.50
2023-02-12T20:39:06.319Z,0.60
2023-02-12T20:41:36.208Z,0.40
2023-02-12T20:44:05.854Z,0.20
2023-02-12T20:46:32.451Z,0.00
2023-02-12T20:48:58.924Z,-0.30
2023-02-12T20:51:27.734Z,-0.30
2023-02-12T20:53:54.940Z,-0.40
2023-02-12T20:56:27.443Z,-0.40
2023-02-12T20:58:54.661Z,-0.20
2023-02-12T21:01:33.739Z,-0.10
2023-02-12T21:04:09.935Z,-0.10
2023-02-12T21:06:39.302Z,0.10
2023-02-12T21:09:08.991Z,0.00
2023-02-12T21:11:36.798Z,0.00
2023-02-12T21:14:20.811Z,0.10
2023-02-12T21:16:48.201Z,0.10
2023-02-12T21:19:14.653Z,0.00
2023-02-12T21:21:46.152Z,0.00
2023-02-12T21:24:17.396Z,0.00
2023-02-12T21:26:44.041Z,0.00
2023-02-12T21:29:10.761Z,-0.10
2023-02-12T21:31:41.532Z,-0.20
2023-02-12T21:34:12.889Z,-0.30
2023-02-12T21:36:41.733Z,-0.20
2023-02-12T21:39:13.527Z,-0.10
2023-02-12T21:41:41.960Z,-0.10
2023-02-12T21:44:16.499Z,0.00
2023-02-12T21:46:43.707Z,0.00
2023-02-12T21:49:13.237Z,0.10
2023-02-12T21:51:44.526Z,0.00
2023-02-12T21:54:15.080Z,-0.10
2023-02-12T21:56:44.596Z,-0.30
2023-02-12T21:59:12.271Z,-0.40
2023-02-12T22:01:49.813Z,-0.50
2023-02-12T22:04:17.872Z,-0.70
2023-02-12T22:06:50.005Z,-0.60
2023-02-12T22:09:20.615Z,-0.60
2023-02-12T22:11:47.195Z,-0.60
2023-02-12T22:14:16.971Z,-0.50
2023-02-12T22:16:44.241Z,-0.50
2023-02-12T22:19:10.806Z,-0.50
2023-02-12T22:21:40.434Z,-0.40
2023-02-12T22:24:11.977Z,-0.70
2023-02-12T22:26:38.491Z,-0.80
2023-02-12T22:29:09.785Z,-0.70
2023-02-12T22:31:40.132Z,-0.70
2023-02-12T22:34:12.735Z,-0.80
2023-02-12T22:36:40.693Z,-0.70
2023-02-12T22:39:07.862Z,-0.70
2023-02-12T22:41:34.354Z,-0.70
2023-02-12T22:44:04.365Z,-0.80
2023-02-12T22:46:31.487Z,-1.00
2023-02-12T22:48:57.958Z,-1.20
2023-02-12T22:51:30.413Z,-1.10
2023-02-12T22:53:56.908Z,-1.30
2023-02-12T22:56:24.467Z,-1.40
2023-02-12T22:59:00.423Z,-1.30
2023-02-12T23:01:29.085Z,-1.20
2023-02-12T23:03:55.996Z,-1.10
2023-02-12T23:06:26.986Z,-1.00
2023-02-12T23:08:58.137Z,-0.80
2023-02-12T23:11:27.498Z,-0.70
2023-02-12T23:13:54.759Z,-0.90
2023-02-12T23:16:21.708Z,-1.00
2023-02-12T23:18:48.225Z,-1.10
2023-02-12T23:21:14.797Z,-1.30
2023-02-12T23:23:41.268Z,-1.30
2023-02-12T23:26:07.745Z,-1.30
2023-02-12T23:28:34.269Z,-1.30
2023-02-12T23:31:01.398Z,-1.30
2023-02-12T23:33:28.121Z,-1.20
2023-02-12T23:35:54.576Z,-1.30
2023-02-12T23:38:21.040Z,-1.30
2023-02-12T23:40:47.938Z,-1.40
2023-02-12T23:43:14.485Z,-1.30
2023-02-12T23:45:43.881Z,-1.40
2023-02-12T23:48:11.108Z,-1.30
2023-02-12T23:50:37.892Z,-1.30
2023-02-12T23:53:04.530Z,-1.20
2023-02-12T23:55:30.983Z,-1.40
2023-02-12T23:57:57.468Z,-1.50
